Time;durP1;ratioP1;P1;durP2;ratioP2;P2;SDS_P1;SDS_P2;PMS_P1;PMS_P2;Temp;Humidity;BMP_temperature;BMP_pressure;BME280_temperature;BME280_humidity;BME280_pressure;Samples;Min_cycle;Max_cycle;Signal;HPM_P1;HPM_P2
2021/12/25 00:02:19;;;;;;;4.13;0.60;;;1.40;96.80;;;;;;5049148;28;20045;-80
2021/12/25 00:04:45;;;;;;;4.47;0.43;;;1.20;96.40;;;;;;5034297;28;20050;-80
2021/12/25 00:07:11;;;;;;;3.40;0.50;;;1.20;96.50;;;;;;5036091;28;20080;-80
2021/12/25 00:09:36;;;;;;;5.10;0.52;;;1.30;96.70;;;;;;5019936;28;20100;-80
2021/12/25 00:12:02;;;;;;;8.60;0.50;;;1.20;96.40;;;;;;5020219;28;20041;-80
2021/12/25 00:14:28;;;;;;;3.13;0.35;;;1.20;96.50;;;;;;5036047;28;20046;-80
2021/12/25 00:16:54;;;;;;;2.08;0.32;;;1.20;96.00;;;;;;5037315;28;20144;-80
2021/12/25 00:19:19;;;;;;;4.55;0.35;;;1.00;96.20;;;;;;5037993;28;20041;-81
2021/12/25 00:21:45;;;;;;;5.70;0.50;;;0.90;96.40;;;;;;5037295;28;20053;-80
2021/12/25 00:24:11;;;;;;;3.47;0.50;;;0.90;96.10;;;;;;5036385;28;20053;-80
2021/12/25 00:26:52;;;;;;;6.80;0.50;;;1.10;96.40;;;;;;5036155;28;20088;-80
2021/12/25 00:31:51;;;;;;;2.08;0.65;;;0.80;95.60;;;;;;5069025;28;20053;-80
2021/12/25 00:34:17;;;;;;;4.20;0.50;;;0.70;95.80;;;;;;5052452;28;20056;-80
2021/12/25 00:36:43;;;;;;;3.45;0.35;;;0.70;96.00;;;;;;5035819;28;20057;-80
2021/12/25 00:39:08;;;;;;;5.00;0.50;;;0.70;96.00;;;;;;5003132;28;20045;-80
2021/12/25 00:41:34;;;;;;;6.10;0.68;;;0.70;95.70;;;;;;5036075;28;20064;-81
2021/12/25 00:44:00;;;;;;;5.50;0.50;;;0.60;95.90;;;;;;5035965;28;20048;-81
2021/12/25 00:46:25;;;;;;;4.03;0.40;;;0.70;96.00;;;;;;5035831;28;20107;-80
2021/12/25 00:48:51;;;;;;;3.85;0.40;;;0.60;95.80;;;;;;5051802;28;20061;-81
2021/12/25 00:51:17;;;;;;;4.95;0.80;;;0.70;95.90;;;;;;5053826;28;20053;-81
2021/12/25 00:53:43;;;;;;;1.83;0.20;;;0.80;96.00;;;;;;5036297;28;20042;-81
2021/12/25 00:56:09;;;;;;;4.57;0.47;;;0.80;95.70;;;;;;5036052;28;20050;-81
2021/12/25 00:58:34;;;;;;;3.60;0.40;;;0.70;95.40;;;;;;5035995;28;20048;-81
2021/12/25 01:01:00;;;;;;;4.20;0.40;;;0.60;95.30;;;;;;5035574;28;20045;-81
2021/12/25 01:03:26;;;;;;;3.88;0.30;;;0.50;95.10;;;;;;5002676;28;20049;-81
2021/12/25 01:05:51;;;;;;;3.53;0.30;;;0.70;95.80;;;;;;5035537;28;20045;-81
2021/12/25 01:08:18;;;;;;;12.10;0.50;;;0.50;95.30;;;;;;5051938;28;20468;-81
2021/12/25 01:10:43;;;;;;;2.80;0.40;;;0.50;95.30;;;;;;5035680;28;20045;-81
2021/12/25 01:13:14;;;;;;;5.38;1.77;;;0.50;95.30;;;;;;5034937;28;20045;-80
2021/12/25 01:31:21;;;;;;;1.00;0.10;;;0.10;94.80;;;;;;5068011;28;20492;-81
2021/12/25 01:36:33;;;;;;;2.70;0.40;;;0.00;95.10;;;;;;5068475;28;20053;-81
2021/12/25 01:49:35;;;;;;;0.90;0.28;;;0.00;95.10;;;;;;5067237;28;20054;-81
2021/12/25 01:52:02;;;;;;;1.55;0.43;;;-0.10;95.10;;;;;;5051139;28;20400;-81
2021/12/25 01:54:28;;;;;;;4.88;0.60;;;-0.10;95.20;;;;;;5034246;28;20053;-81
2021/12/25 01:56:53;;;;;;;3.13;0.40;;;-0.20;95.00;;;;;;5001547;28;20045;-82
2021/12/25 01:59:19;;;;;;;0.93;0.40;;;-0.10;95.20;;;;;;5018589;28;20057;-81
2021/12/25 02:01:45;;;;;;;0.77;0.17;;;-0.10;95.00;;;;;;5034266;28;20127;-81
2021/12/25 02:04:11;;;;;;;2.22;0.40;;;-0.10;94.80;;;;;;5052512;28;20041;-81
2021/12/25 02:06:37;;;;;;;7.03;0.45;;;0.10;95.10;;;;;;5019229;28;20038;-81
2021/12/25 02:09:04;;;;;;;3.22;0.40;;;0.00;95.00;;;;;;5034495;28;20427;-82
2021/12/25 02:11:30;;;;;;;5.07;0.43;;;-0.10;94.90;;;;;;5033598;28;20045;-82
2021/12/25 02:13:58;;;;;;;3.00;0.40;;;-0.10;94.80;;;;;;5034150;28;20052;-82
2021/12/25 02:16:28;;;;;;;1.20;0.50;;;-0.20;94.90;;;;;;5034113;28;20053;-82
2021/12/25 02:19:05;;;;;;;2.00;0.20;;;-0.20;95.00;;;;;;5051051;28;20045;-82
2021/12/25 02:21:37;;;;;;;2.83;0.20;;;0.00;94.80;;;;;;5019678;28;20091;-82
2021/12/25 02:24:04;;;;;;;3.20;0.30;;;0.00;94.90;;;;;;5067686;28;20092;-82
2021/12/25 02:26:31;;;;;;;1.85;0.20;;;-0.10;94.60;;;;;;5033648;28;20489;-81
2021/12/25 02:28:57;;;;;;;1.70;0.30;;;-0.10;95.00;;;;;;5033698;28;20056;-82
2021/12/25 02:31:23;;;;;;;1.80;0.20;;;-0.20;94.70;;;;;;5034519;28;20060;-81
2021/12/25 02:33:49;;;;;;;2.55;0.30;;;-0.20;94.80;;;;;;5051568;28;20095;-81
2021/12/25 02:36:15;;;;;;;2.47;0.25;;;-0.20;94.80;;;;;;5034585;28;20054;-81
2021/12/25 02:38:42;;;;;;;5.13;1.05;;;-0.30;95.20;;;;;;5050635;28;20037;-82
2021/12/25 02:41:08;;;;;;;2.17;0.30;;;-0.30;94.70;;;;;;5016877;28;20050;-81
2021/12/25 02:43:34;;;;;;;4.32;0.20;;;-0.30;94.80;;;;;;5033524;28;20052;-82
2021/12/25 02:46:04;;;;;;;2.72;0.20;;;-0.40;94.80;;;;;;5033739;28;20064;-81
2021/12/25 02:48:33;;;;;;;2.97;0.20;;;-0.40;94.90;;;;;;5049741;28;20049;-82
2021/12/25 02:50:59;;;;;;;3.92;0.40;;;-0.40;94.60;;;;;;5050312;28;20504;-81
2021/12/25 02:53:25;;;;;;;2.92;0.32;;;-0.30;94.70;;;;;;5033136;28;20053;-82
2021/12/25 02:55:51;;;;;;;0.70;0.20;;;-0.50;94.30;;;;;;5050006;28;20049;-82
2021/12/25 02:58:19;;;;;;;4.07;0.45;;;-0.40;94.40;;;;;;4984402;28;20060;-81
2021/12/25 03:00:56;;;;;;;0.88;0.28;;;-0.20;94.60;;;;;;5033243;28;20045;-81
2021/12/25 03:03:22;;;;;;;0.50;0.10;;;-0.40;94.40;;;;;;5050723;28;20052;-82
2021/12/25 03:05:49;;;;;;;1.42;0.17;;;-0.40;94.20;;;;;;5033314;28;20037;-82
2021/12/25 03:08:16;;;;;;;1.73;0.20;;;-0.40;94.40;;;;;;5033566;28;20404;-82
2021/12/25 03:10:42;;;;;;;2.45;0.28;;;-0.30;94.00;;;;;;5066263;28;20052;-81
2021/12/25 03:15:45;;;;;;;2.20;0.20;;;-0.60;94.00;;;;;;5066831;28;20100;-82
2021/12/25 03:18:24;;;;;;;2.25;0.30;;;-0.70;93.90;;;;;;5050185;28;20088;-82
2021/12/25 03:20:52;;;;;;;0.40;0.15;;;-0.50;94.50;;;;;;5033773;28;20400;-82
2021/12/25 03:23:23;;;;;;;0.93;0.20;;;-0.40;94.40;;;;;;5033223;28;20067;-82
2021/12/25 03:25:52;;;;;;;2.05;0.10;;;-0.20;94.60;;;;;;5016654;28;20068;-82
2021/12/25 03:28:21;;;;;;;5.22;0.20;;;-0.50;94.10;;;;;;5033071;28;20049;-82
2021/12/25 03:30:46;;;;;;;3.55;0.40;;;-0.30;94.50;;;;;;5033218;28;20064;-82
2021/12/25 03:33:15;;;;;;;0.75;0.10;;;-0.50;94.50;;;;;;5016066;28;20492;-82
2021/12/25 03:35:42;;;;;;;1.63;0.20;;;-0.40;94.50;;;;;;5034246;28;20524;-82
2021/12/25 03:38:12;;;;;;;1.27;0.10;;;-0.30;94.20;;;;;;5038197;28;20050;-82
2021/12/25 03:40:38;;;;;;;0.90;0.10;;;-0.50;94.00;;;;;;5050280;28;20057;-82
2021/12/25 03:43:05;;;;;;;6.70;0.25;;;-0.50;94.00;;;;;;5032866;28;20045;-82
2021/12/25 03:45:32;;;;;;;1.40;0.10;;;-0.90;94.20;;;;;;5033019;28;20146;-83
2021/12/25 03:48:12;;;;;;;3.90;0.30;;;-0.80;94.80;;;;;;5066129;28;20054;-83
2021/12/25 03:57:35;;;;;;;0.63;0.13;;;-0.80;94.70;;;;;;5065965;28;20504;-83
2021/12/25 03:58:56;;;;;;;1.58;0.10;;;-0.80;94.70;;;;;;5066305;28;20396;-83
2021/12/25 04:01:42;;;;;;;1.63;0.20;;;-0.80;94.60;;;;;;5049344;28;20050;-83
2021/12/25 04:04:26;;;;;;;3.20;0.32;;;-0.90;94.90;;;;;;5032881;28;20041;-83
2021/12/25 04:07:13;;;;;;;1.20;0.38;;;-0.70;94.70;;;;;;5066425;28;20053;-83
2021/12/25 04:09:40;;;;;;;1.35;0.10;;;-0.70;94.90;;;;;;5032907;28;20076;-83
2021/12/25 04:12:10;;;;;;;4.95;1.10;;;-0.80;94.70;;;;;;5049322;28;20046;-83
2021/12/25 04:14:37;;;;;;;1.48;0.25;;;-0.70;94.70;;;;;;5031884;28;20045;-83
2021/12/25 04:17:03;;;;;;;2.00;0.30;;;-0.70;94.80;;;;;;5032496;28;20409;-83
2021/12/25 04:19:29;;;;;;;2.35;0.40;;;-0.60;94.90;;;;;;5049006;28;20095;-83
2021/12/25 04:22:08;;;;;;;1.40;0.20;;;-0.50;94.70;;;;;;5032406;28;20082;-83
2021/12/25 04:24:38;;;;;;;4.93;0.30;;;-0.60;94.70;;;;;;5034835;28;20054;-83
2021/12/25 04:27:07;;;;;;;0.57;0.15;;;-0.50;94.60;;;;;;5032879;28;20056;-83
2021/12/25 04:29:59;;;;;;;1.77;0.10;;;-0.80;94.60;;;;;;5032708;28;20484;-83
2021/12/25 05:02:19;;;;;;;0.63;0.17;;;-0.60;95.20;;;;;;5068726;28;20412;-82
2021/12/25 05:05:01;;;;;;;2.20;0.17;;;-0.50;95.20;;;;;;5052452;28;20053;-82
2021/12/25 05:07:27;;;;;;;1.85;0.30;;;-0.30;95.10;;;;;;5035545;28;20060;-82
2021/12/25 05:09:53;;;;;;;2.92;0.28;;;-0.40;94.60;;;;;;5002529;28;20045;-82
2021/12/25 05:12:20;;;;;;;1.75;0.20;;;-0.40;94.70;;;;;;5019426;28;20041;-82
2021/12/25 05:14:45;;;;;;;3.78;0.20;;;-0.40;94.60;;;;;;5035630;28;20049;-82
2021/12/25 05:17:13;;;;;;;1.10;0.10;;;-0.40;94.80;;;;;;5035603;28;20224;-82
2021/12/25 05:19:39;;;;;;;3.40;0.28;;;-0.60;94.60;;;;;;5074956;28;20088;-82
2021/12/25 05:22:05;;;;;;;1.98;0.20;;;-0.70;94.70;;;;;;5053460;28;20108;-82
2021/12/25 05:24:31;;;;;;;2.22;0.47;;;-0.80;94.80;;;;;;5051742;28;20085;-82
2021/12/25 05:26:58;;;;;;;2.53;0.30;;;-0.80;94.80;;;;;;5035300;28;20037;-82
2021/12/25 05:29:30;;;;;;;0.65;0.08;;;-0.80;94.60;;;;;;5018686;28;20045;-82
2021/12/25 05:31:55;;;;;;;2.22;0.60;;;-1.00;94.70;;;;;;5034850;28;20041;-82
2021/12/25 05:34:21;;;;;;;1.38;0.13;;;-0.80;94.70;;;;;;5052112;28;20055;-81
2021/12/25 05:36:47;;;;;;;0.65;0.10;;;-1.00;95.00;;;;;;5002272;28;20045;-81
2021/12/25 05:39:14;;;;;;;3.47;0.40;;;-1.00;94.90;;;;;;5052018;28;20084;-82
2021/12/25 05:41:39;;;;;;;1.77;0.10;;;-1.00;94.70;;;;;;5035785;28;20107;-82
2021/12/25 05:44:05;;;;;;;3.38;0.20;;;-1.00;94.40;;;;;;5035639;28;20045;-81
2021/12/25 05:46:31;;;;;;;2.42;0.20;;;-1.30;94.80;;;;;;5019159;28;20044;-82
2021/12/25 05:48:58;;;;;;;3.55;0.20;;;-1.20;95.00;;;;;;5034770;28;20057;-81
2021/12/25 05:51:24;;;;;;;2.38;0.30;;;-1.20;94.90;;;;;;5034944;28;20049;-82
2021/12/25 05:53:49;;;;;;;1.80;0.28;;;-1.00;95.10;;;;;;5034944;28;20043;-81
2021/12/25 05:56:16;;;;;;;2.05;0.98;;;-1.10;94.80;;;;;;5051159;28;20104;-82
2021/12/25 05:58:42;;;;;;;1.42;0.25;;;-1.30;94.80;;;;;;5051189;28;20048;-81
2021/12/25 06:01:09;;;;;;;0.93;0.10;;;-1.10;94.90;;;;;;5050975;28;20053;-81
2021/12/25 06:03:35;;;;;;;2.00;0.20;;;-1.20;94.90;;;;;;5050989;28;20068;-81
2021/12/25 06:06:00;;;;;;;4.75;0.30;;;-1.30;94.70;;;;;;5034408;28;20041;-81
2021/12/25 06:08:27;;;;;;;4.47;0.30;;;-1.50;94.90;;;;;;5050912;28;20046;-81
2021/12/25 06:10:53;;;;;;;3.17;0.25;;;-1.40;95.10;;;;;;5034243;28;20060;-81
2021/12/25 06:13:22;;;;;;;3.40;0.20;;;-1.50;95.10;;;;;;5034307;28;20041;-81
2021/12/25 06:15:49;;;;;;;1.63;0.28;;;-1.50;95.10;;;;;;5068366;28;20052;-81
2021/12/25 06:18:15;;;;;;;2.83;0.30;;;-1.60;95.30;;;;;;5034094;28;20045;-81
2021/12/25 06:20:41;;;;;;;1.23;0.38;;;-1.50;95.30;;;;;;5017515;28;20481;-81
2021/12/25 06:23:07;;;;;;;4.55;0.30;;;-1.30;95.30;;;;;;5050832;28;20388;-81
2021/12/25 06:25:33;;;;;;;2.15;0.17;;;-1.30;95.10;;;;;;5050331;28;20055;-81
2021/12/25 06:27:59;;;;;;;2.45;0.20;;;-1.50;95.00;;;;;;5050563;28;20041;-82
2021/12/25 06:30:25;;;;;;;3.33;0.20;;;-1.50;95.20;;;;;;5050102;28;20107;-82
2021/12/25 06:32:51;;;;;;;1.20;0.40;;;-1.40;95.40;;;;;;5000972;28;20392;-82
2021/12/25 06:35:17;;;;;;;2.83;0.17;;;-1.40;95.00;;;;;;5050705;28;20056;-82
2021/12/25 06:37:45;;;;;;;8.18;0.28;;;-1.40;95.10;;;;;;5033701;28;20107;-82
2021/12/25 06:40:12;;;;;;;1.58;0.20;;;-1.40;95.20;;;;;;5033756;28;20085;-81
2021/12/25 06:42:38;;;;;;;4.47;0.57;;;-1.40;95.30;;;;;;5050557;28;20049;-82
2021/12/25 06:45:05;;;;;;;4.07;0.30;;;-1.30;95.20;;;;;;5033726;28;20045;-82
2021/12/25 06:47:32;;;;;;;2.08;0.20;;;-1.30;95.20;;;;;;5017255;28;20048;-82
2021/12/25 06:49:57;;;;;;;3.55;0.20;;;-1.40;95.30;;;;;;5066454;28;20045;-82
2021/12/25 06:52:23;;;;;;;3.05;0.20;;;-1.40;95.50;;;;;;4984985;28;20048;-82
2021/12/25 06:54:50;;;;;;;1.83;0.10;;;-1.30;95.30;;;;;;5067785;28;20114;-81
2021/12/25 06:57:17;;;;;;;0.82;0.20;;;-1.30;95.10;;;;;;4985715;28;20114;-81
2021/12/25 06:59:43;;;;;;;2.22;0.40;;;-1.20;95.20;;;;;;5034700;28;20049;-82
2021/12/25 07:02:09;;;;;;;1.52;0.30;;;-1.20;95.10;;;;;;5049484;28;20539;-82
2021/12/25 07:04:34;;;;;;;2.80;0.30;;;-1.40;95.20;;;;;;5033341;28;20045;-82
2021/12/25 07:07:00;;;;;;;1.00;0.20;;;-1.30;95.10;;;;;;5016821;28;20372;-82
2021/12/25 07:09:26;;;;;;;0.55;0.10;;;-1.40;95.30;;;;;;5016726;28;20128;-82
2021/12/25 07:11:52;;;;;;;3.17;0.28;;;-1.20;95.30;;;;;;5066468;28;20037;-82
2021/12/25 07:14:18;;;;;;;6.70;0.43;;;-1.40;95.20;;;;;;5032535;28;20370;-82
2021/12/25 07:16:43;;;;;;;2.22;0.30;;;-1.30;95.20;;;;;;5033138;28;20099;-82
2021/12/25 07:19:12;;;;;;;2.83;0.40;;;-1.20;95.30;;;;;;5032841;28;20395;-81
2021/12/25 07:21:38;;;;;;;1.17;0.20;;;-1.30;95.20;;;;;;5033269;28;20099;-82
2021/12/25 07:24:05;;;;;;;3.10;0.30;;;-1.20;95.40;;;;;;5049650;28;20045;-81
2021/12/25 07:26:30;;;;;;;1.83;0.38;;;-1.10;95.40;;;;;;5049815;28;20045;-81
2021/12/25 07:28:56;;;;;;;4.63;0.28;;;-1.20;95.30;;;;;;5066587;28;20362;-81
2021/12/25 07:31:22;;;;;;;1.58;0.45;;;-1.20;95.10;;;;;;5066655;28;20111;-82
2021/12/25 07:33:48;;;;;;;1.15;0.60;;;-1.10;95.40;;;;;;5016335;28;20045;-81
2021/12/25 07:36:15;;;;;;;0.90;0.20;;;-1.30;95.20;;;;;;5000344;28;20164;-82
2021/12/25 07:38:41;;;;;;;3.85;0.30;;;-1.20;95.50;;;;;;5049305;28;20049;-81
2021/12/25 07:41:06;;;;;;;2.17;0.25;;;-1.30;95.30;;;;;;5033222;28;20049;-81
2021/12/25 07:43:32;;;;;;;5.80;0.40;;;-1.30;95.40;;;;;;5049395;28;20050;-81
2021/12/25 07:45:58;;;;;;;3.20;0.30;;;-1.10;95.30;;;;;;5000413;28;20072;-81
2021/12/25 07:48:26;;;;;;;2.90;0.22;;;-1.40;95.20;;;;;;5016247;28;20057;-82
2021/12/25 07:50:52;;;;;;;2.58;0.30;;;-1.10;95.40;;;;;;5049965;28;20057;-81
2021/12/25 07:53:18;;;;;;;1.80;0.30;;;-1.20;95.30;;;;;;5033050;28;20458;-81
2021/12/25 07:55:47;;;;;;;1.30;0.20;;;-1.30;95.40;;;;;;5033297;28;20130;-81
2021/12/25 07:58:13;;;;;;;4.60;0.30;;;-1.40;95.30;;;;;;5049052;28;20056;-81
2021/12/25 08:00:39;;;;;;;3.10;0.22;;;-1.50;95.40;;;;;;5032364;28;20046;-81
2021/12/25 08:03:05;;;;;;;4.18;0.20;;;-1.50;95.40;;;;;;5032906;28;20107;-82
2021/12/25 08:05:32;;;;;;;3.40;0.20;;;-1.50;95.50;;;;;;5050148;28;20095;-81
2021/12/25 08:07:58;;;;;;;1.52;0.25;;;-1.40;95.40;;;;;;5049407;28;20041;-82
2021/12/25 08:10:24;;;;;;;1.85;0.20;;;-1.40;95.30;;;;;;5032316;28;20046;-81
2021/12/25 08:12:52;;;;;;;3.30;0.65;;;-1.40;95.50;;;;;;5032542;28;20136;-82
2021/12/25 08:15:20;;;;;;;3.45;0.20;;;-1.40;95.30;;;;;;5066106;28;20081;-82
2021/12/25 08:17:46;;;;;;;2.20;0.30;;;-1.40;95.00;;;;;;5033033;28;20429;-81
2021/12/25 08:20:13;;;;;;;1.85;0.20;;;-1.30;95.40;;;;;;5066698;28;20119;-81
2021/12/25 08:22:41;;;;;;;1.23;0.52;;;-1.30;95.30;;;;;;5033142;28;20085;-80
2021/12/25 08:25:08;;;;;;;5.65;0.52;;;-1.40;95.00;;;;;;5032984;28;20397;-80
2021/12/25 08:27:35;;;;;;;1.38;0.40;;;-1.50;95.10;;;;;;5051252;28;20461;-80
2021/12/25 08:30:02;;;;;;;1.63;0.52;;;-1.50;95.10;;;;;;5004000;28;20057;-80
2021/12/25 08:32:27;;;;;;;3.92;0.50;;;-1.40;94.90;;;;;;5036925;28;20041;-81
2021/12/25 08:34:53;;;;;;;1.17;0.30;;;-1.50;95.00;;;;;;5037115;28;20048;-81
2021/12/25 08:37:24;;;;;;;2.78;0.35;;;-1.50;94.90;;;;;;5020481;28;20507;-81
2021/12/25 08:39:54;;;;;;;2.22;0.30;;;-1.40;95.20;;;;;;5053209;28;20049;-81
2021/12/25 08:42:21;;;;;;;2.65;0.30;;;-1.40;94.80;;;;;;5053507;28;20049;-81
2021/12/25 08:47:27;;;;;;;0.88;0.30;;;-1.50;94.80;;;;;;5070024;28;20492;-81
2021/12/25 08:49:53;;;;;;;3.05;0.60;;;-1.30;95.00;;;;;;5070472;28;20061;-85
2021/12/25 08:52:21;;;;;;;1.45;0.32;;;-1.20;95.00;;;;;;5036694;28;20041;-88
2021/12/25 08:54:50;;;;;;;1.38;0.32;;;-1.20;94.80;;;;;;5052618;28;20046;-74
2021/12/25 08:57:18;;;;;;;2.40;0.30;;;-1.10;94.80;;;;;;5039534;28;20049;-75
2021/12/25 08:59:44;;;;;;;2.55;0.40;;;-1.20;94.70;;;;;;5039793;28;20041;-75
2021/12/25 09:02:14;;;;;;;3.50;0.40;;;-1.10;94.80;;;;;;5038548;28;20492;-73
2021/12/25 09:04:41;;;;;;;1.40;0.40;;;-1.30;94.90;;;;;;5052232;28;20053;-70
2021/12/25 09:07:07;;;;;;;4.78;0.47;;;-1.30;94.60;;;;;;5068966;28;20107;-72
2021/12/25 09:09:33;;;;;;;2.35;0.50;;;-1.20;94.90;;;;;;5052024;28;20484;-73
2021/12/25 09:11:59;;;;;;;2.58;0.38;;;-1.10;95.00;;;;;;5035295;28;20106;-70
2021/12/25 09:14:25;;;;;;;3.13;0.30;;;-1.20;94.60;;;;;;5035279;28;20128;-72
2021/12/25 09:16:52;;;;;;;1.65;0.20;;;-1.20;94.70;;;;;;5036332;28;20045;-72
2021/12/25 09:19:17;;;;;;;2.33;0.30;;;-1.20;94.40;;;;;;5035291;28;20050;-74
2021/12/25 09:21:43;;;;;;;4.40;0.32;;;-1.30;94.70;;;;;;5035593;28;20049;-76
2021/12/25 09:24:09;;;;;;;3.25;0.40;;;-1.30;94.70;;;;;;5020368;28;20049;-74
2021/12/25 09:26:37;;;;;;;2.33;0.30;;;-1.20;94.60;;;;;;5034978;28;20057;-74
2021/12/25 09:29:05;;;;;;;6.65;0.43;;;-1.10;94.30;;;;;;5068417;28;20080;-75
2021/12/25 09:31:31;;;;;;;1.75;0.20;;;-1.10;94.30;;;;;;5034466;28;20059;-73
2021/12/25 09:33:57;;;;;;;3.47;0.30;;;-1.00;94.60;;;;;;5018423;28;20469;-73
2021/12/25 09:36:23;;;;;;;1.73;0.20;;;-1.00;94.50;;;;;;5015827;28;20037;-73
2021/12/25 09:38:49;;;;;;;2.67;0.30;;;-1.00;94.60;;;;;;5033845;28;20056;-73
2021/12/25 09:41:16;;;;;;;2.95;0.30;;;-0.90;94.30;;;;;;5034217;28;20496;-72
2021/12/25 09:43:44;;;;;;;1.73;0.30;;;-1.10;94.20;;;;;;5051092;28;20049;-73
2021/12/25 09:46:10;;;;;;;4.93;0.30;;;-1.10;94.60;;;;;;5033480;28;20508;-73
2021/12/25 09:48:36;;;;;;;3.92;0.43;;;-1.10;94.40;;;;;;5034323;28;20061;-72
2021/12/25 09:51:02;;;;;;;1.02;0.22;;;-1.10;94.50;;;;;;5051107;28;20061;-72
2021/12/25 09:53:28;;;;;;;3.80;0.30;;;-1.00;94.40;;;;;;5012997;28;20078;-72
2021/12/25 09:55:55;;;;;;;2.50;0.20;;;-1.00;94.20;;;;;;5014619;28;20081;-72
2021/12/25 09:58:21;;;;;;;1.63;0.30;;;-1.10;94.20;;;;;;5014679;28;20405;-72
2021/12/25 10:00:51;;;;;;;2.15;0.40;;;-1.10;94.50;;;;;;5039034;28;20128;-72
2021/12/25 10:03:18;;;;;;;5.22;0.60;;;-0.80;94.40;;;;;;5033955;28;20084;-73
2021/12/25 10:05:46;;;;;;;0.80;0.20;;;-0.90;94.40;;;;;;5034220;28;20060;-74
2021/12/25 10:08:16;;;;;;;2.65;0.22;;;-0.70;94.60;;;;;;5034175;28;20045;-73
2021/12/25 10:10:45;;;;;;;5.20;0.40;;;-0.80;94.30;;;;;;5032988;28;20049;-78
2021/12/25 10:13:26;;;;;;;2.60;0.38;;;-0.70;94.70;;;;;;5032287;28;20128;-73
2021/12/25 10:15:57;;;;;;;2.90;0.95;;;-0.10;94.70;;;;;;5033125;28;20045;-72
2021/12/25 10:18:33;;;;;;;3.33;0.68;;;-0.30;94.00;;;;;;5034115;28;20500;-72
2021/12/25 10:21:18;;;;;;;2.83;0.30;;;-0.30;94.00;;;;;;5034087;28;20049;-72
2021/12/25 10:23:44;;;;;;;2.80;0.32;;;-0.30;93.90;;;;;;5034001;28;20053;-72
2021/12/25 10:26:10;;;;;;;1.80;0.38;;;-0.20;93.70;;;;;;5016872;28;20108;-71
2021/12/25 10:28:39;;;;;;;5.30;0.70;;;-0.10;93.90;;;;;;5033820;28;20049;-72
2021/12/25 10:31:16;;;;;;;2.08;0.40;;;0.10;93.80;;;;;;5033535;28;20057;-72
2021/12/25 10:33:53;;;;;;;2.17;0.30;;;-0.10;93.50;;;;;;5033863;28;20111;-71
2021/12/25 10:36:36;;;;;;;1.85;0.50;;;0.00;93.40;;;;;;5017295;28;20081;-72
2021/12/25 10:39:01;;;;;;;2.22;0.40;;;0.00;93.60;;;;;;5033687;28;20053;-71
2021/12/25 10:41:27;;;;;;;3.83;0.60;;;0.00;93.70;;;;;;5033686;28;20056;-72
2021/12/25 10:44:18;;;;;;;1.42;0.50;;;-0.10;93.60;;;;;;5033682;28;20072;-71
2021/12/25 10:46:59;;;;;;;3.83;0.60;;;-0.20;93.60;;;;;;5034981;28;20057;-71
2021/12/25 10:49:28;;;;;;;1.63;0.38;;;-0.30;93.70;;;;;;5032875;28;20065;-71
2021/12/25 10:51:55;;;;;;;3.47;0.75;;;-0.20;94.00;;;;;;5034295;28;20056;-71
2021/12/25 10:54:38;;;;;;;1.50;0.45;;;-0.20;93.90;;;;;;5033570;28;20408;-71
2021/12/25 10:57:05;;;;;;;3.58;0.47;;;-0.20;94.00;;;;;;5033638;28;20049;-71
2021/12/25 10:59:44;;;;;;;2.83;0.40;;;-0.10;93.70;;;;;;5033313;28;20444;-71
2021/12/25 11:02:35;;;;;;;3.78;0.80;;;-0.20;93.80;;;;;;5033249;28;20061;-71
2021/12/25 11:05:13;;;;;;;5.47;0.75;;;-0.20;93.60;;;;;;5033205;28;20115;-71
2021/12/25 11:07:39;;;;;;;8.57;0.60;;;-0.20;94.00;;;;;;5033188;28;20049;-71
2021/12/25 11:10:08;;;;;;;3.03;0.55;;;-0.10;93.80;;;;;;5031742;28;20045;-71
2021/12/25 11:12:35;;;;;;;5.90;0.70;;;-0.30;93.80;;;;;;5032464;28;20052;-72
2021/12/25 11:15:17;;;;;;;3.67;0.50;;;-0.20;94.00;;;;;;5032925;28;20085;-73
2021/12/25 11:17:49;;;;;;;2.35;0.50;;;-0.10;93.90;;;;;;5021691;28;20496;-71
2021/12/25 11:20:22;;;;;;;2.00;0.50;;;-0.20;93.60;;;;;;5032820;28;20046;-71
2021/12/25 11:22:57;;;;;;;5.47;0.70;;;-0.10;94.00;;;;;;5032663;28;20053;-72
2021/12/25 11:25:26;;;;;;;4.13;0.50;;;-0.10;93.80;;;;;;5032815;28;20516;-72
2021/12/25 11:27:53;;;;;;;4.30;1.08;;;0.00;93.70;;;;;;5033564;28;20067;-72
2021/12/25 11:30:22;;;;;;;3.42;0.75;;;0.00;93.70;;;;;;5032406;28;20547;-72
2021/12/25 11:32:49;;;;;;;2.58;0.50;;;0.20;93.40;;;;;;5031524;28;20050;-72
2021/12/25 11:35:19;;;;;;;3.17;0.45;;;0.30;93.80;;;;;;5014936;28;20075;-72
2021/12/25 11:37:55;;;;;;;3.35;0.50;;;0.60;93.50;;;;;;5032672;28;20544;-72
2021/12/25 11:40:24;;;;;;;5.22;1.08;;;0.90;93.40;;;;;;5032827;28;20057;-72
2021/12/25 11:42:56;;;;;;;3.85;0.40;;;1.10;93.20;;;;;;5016588;28;20049;-72
2021/12/25 11:45:28;;;;;;;2.72;0.93;;;1.50;93.10;;;;;;5033407;28;20144;-72
2021/12/25 11:48:00;;;;;;;2.97;0.50;;;1.80;92.60;;;;;;5016276;28;20054;-72
2021/12/25 11:50:32;;;;;;;3.72;0.40;;;1.90;92.50;;;;;;5032438;28;20079;-72
2021/12/25 11:53:18;;;;;;;1.70;0.47;;;1.60;92.30;;;;;;5032652;28;20050;-72
2021/12/25 11:58:46;;;;;;;1.15;0.47;;;1.20;92.50;;;;;;5032274;28;20049;-72
2021/12/25 12:01:42;;;;;;;2.47;0.63;;;1.20;92.60;;;;;;5033818;28;20107;-72
2021/12/25 12:04:11;;;;;;;2.30;0.60;;;1.20;92.90;;;;;;5036896;28;20076;-73
2021/12/25 12:06:51;;;;;;;5.63;0.50;;;1.30;93.10;;;;;;5020002;28;20092;-71
2021/12/25 12:09:22;;;;;;;4.28;0.60;;;1.20;92.90;;;;;;5037840;28;20408;-73
2021/12/25 12:12:05;;;;;;;1.15;0.30;;;1.40;92.70;;;;;;5036586;28;20049;-75
2021/12/25 12:14:32;;;;;;;3.55;0.47;;;1.70;92.40;;;;;;5037270;28;20362;-74
2021/12/25 12:17:04;;;;;;;6.10;0.60;;;1.90;92.10;;;;;;5038996;28;20049;-76
2021/12/25 12:19:29;;;;;;;1.50;0.32;;;1.90;92.00;;;;;;5020287;28;20049;-74
2021/12/25 12:21:56;;;;;;;5.35;0.38;;;1.80;91.90;;;;;;5036320;28;20049;-75
2021/12/25 12:27:00;;;;;;;2.58;0.50;;;1.60;91.90;;;;;;5036364;28;20504;-74
2021/12/25 12:29:51;;;;;;;2.85;0.40;;;1.60;92.10;;;;;;5054065;28;20091;-74
2021/12/25 12:32:19;;;;;;;3.55;1.13;;;1.70;92.10;;;;;;5037680;28;20139;-74
2021/12/25 12:34:51;;;;;;;2.13;0.43;;;1.70;92.00;;;;;;5019784;28;20369;-75
2021/12/25 12:37:16;;;;;;;7.45;0.70;;;1.70;91.70;;;;;;5036434;28;20081;-76
2021/12/25 12:40:05;;;;;;;3.15;0.30;;;1.80;91.60;;;;;;5036276;28;20061;-76
2021/12/25 12:42:44;;;;;;;1.77;0.43;;;2.10;91.60;;;;;;5036192;28;20076;-76
2021/12/25 12:45:24;;;;;;;7.03;0.35;;;2.50;91.50;;;;;;5036025;28;20057;-73
2021/12/25 12:48:20;;;;;;;1.58;0.30;;;2.80;90.80;;;;;;5036104;28;20057;-74
2021/12/25 12:50:57;;;;;;;3.30;0.70;;;3.00;90.40;;;;;;5033935;28;20551;-74
2021/12/25 12:53:25;;;;;;;2.20;0.50;;;3.70;90.60;;;;;;5035534;28;20132;-73
2021/12/25 12:56:02;;;;;;;6.15;0.55;;;4.30;89.40;;;;;;5035748;28;20215;-73
2021/12/25 12:58:28;;;;;;;4.88;0.50;;;4.80;88.70;;;;;;5019280;28;20107;-73
2021/12/25 13:01:00;;;;;;;2.83;1.05;;;4.90;87.30;;;;;;5035141;28;20042;-75
2021/12/25 13:03:28;;;;;;;3.13;0.77;;;5.00;87.40;;;;;;5036113;28;20147;-74
2021/12/25 13:06:02;;;;;;;4.50;0.55;;;5.40;86.60;;;;;;5035496;28;20049;-74
2021/12/25 13:08:30;;;;;;;2.90;0.50;;;5.90;84.90;;;;;;5035486;28;20045;-73
2021/12/25 13:11:08;;;;;;;3.50;0.77;;;5.80;85.40;;;;;;5036555;28;20053;-73
2021/12/25 13:13:40;;;;;;;2.10;0.50;;;5.60;83.40;;;;;;5034210;28;20084;-73
2021/12/25 13:16:14;;;;;;;3.30;0.70;;;4.90;85.70;;;;;;5035492;28;20041;-73
2021/12/25 13:18:46;;;;;;;2.50;0.63;;;4.30;85.10;;;;;;5036046;28;20512;-73
2021/12/25 13:21:14;;;;;;;1.30;0.45;;;4.30;85.70;;;;;;5035380;28;20107;-73
2021/12/25 13:23:50;;;;;;;3.85;0.55;;;4.20;85.80;;;;;;5034904;28;20057;-73
2021/12/25 13:26:21;;;;;;;2.17;0.70;;;3.90;85.20;;;;;;5035373;28;20049;-73
2021/12/25 13:28:48;;;;;;;2.70;0.50;;;3.80;86.40;;;;;;5035170;28;20052;-73
2021/12/25 13:31:18;;;;;;;4.93;0.50;;;3.50;88.00;;;;;;5034621;28;20049;-73
2021/12/25 13:34:13;;;;;;;2.97;0.73;;;3.60;88.20;;;;;;5018208;28;20037;-73
2021/12/25 13:36:41;;;;;;;9.35;1.35;;;4.40;88.00;;;;;;5031109;28;20057;-73
2021/12/25 13:39:13;;;;;;;4.55;0.90;;;5.10;87.30;;;;;;5035112;28;20056;-74
2021/12/25 13:41:43;;;;;;;2.75;0.70;;;5.50;86.80;;;;;;5034825;28;20048;-73
2021/12/25 13:44:16;;;;;;;3.25;0.73;;;5.30;85.00;;;;;;5034690;28;20497;-73
2021/12/25 13:47:00;;;;;;;2.83;0.80;;;4.80;84.20;;;;;;5051262;28;20107;-74
2021/12/25 13:49:41;;;;;;;2.63;0.73;;;4.00;86.10;;;;;;5034714;28;20107;-74
2021/12/25 13:52:25;;;;;;;2.22;0.80;;;3.80;87.20;;;;;;5034961;28;20081;-74
2021/12/25 13:55:03;;;;;;;4.97;0.90;;;3.80;87.60;;;;;;5018275;28;20053;-73
2021/12/25 13:57:30;;;;;;;1.92;0.60;;;3.60;86.80;;;;;;5034800;28;20489;-73
2021/12/25 14:00:00;;;;;;;1.85;0.50;;;3.20;86.90;;;;;;5035223;28;20493;-73
2021/12/25 14:02:26;;;;;;;3.17;0.60;;;2.70;88.20;;;;;;5035241;28;20113;-73
2021/12/25 14:04:52;;;;;;;5.13;0.52;;;2.40;88.60;;;;;;5018087;28;20168;-73
2021/12/25 14:07:21;;;;;;;3.92;0.47;;;2.00;88.50;;;;;;5034168;28;20049;-73
2021/12/25 14:09:56;;;;;;;2.88;0.60;;;1.90;88.90;;;;;;5034293;28;20136;-73
2021/12/25 14:12:24;;;;;;;5.85;1.25;;;1.60;90.00;;;;;;5018323;28;20056;-73
2021/12/25 14:14:50;;;;;;;2.92;0.80;;;1.50;90.60;;;;;;5017733;28;20050;-73
2021/12/25 14:17:16;;;;;;;3.92;0.98;;;1.50;90.80;;;;;;5034142;28;20041;-73
2021/12/25 14:19:42;;;;;;;5.13;0.85;;;1.40;91.50;;;;;;5034138;28;20061;-73